createdAt,value
2022-11-24T00:01:36.727Z,55.85
2022-11-24T00:04:40.774Z,54.40
2022-11-24T00:07:44.934Z,52.92
2022-11-24T00:10:49.015Z,56.03
2022-11-24T00:13:52.214Z,57.43
2022-11-24T00:16:56.485Z,54.60
2022-11-24T00:20:00.583Z,60.92
2022-11-24T00:23:04.796Z,62.40
2022-11-24T00:26:10.884Z,55.95
2022-11-24T00:29:13.721Z,61.80
2022-11-24T00:32:17.717Z,58.10
2022-11-24T00:35:21.753Z,64.63
2022-11-24T00:38:26.673Z,59.10
2022-11-24T00:41:31.761Z,59.30
2022-11-24T00:44:34.658Z,52.90
2022-11-24T00:47:38.897Z,61.30
2022-11-24T00:50:42.953Z,60.70
2022-11-24T00:53:48.770Z,58.78
2022-11-24T00:56:51.525Z,54.80
2022-11-24T00:59:55.569Z,59.27
2022-11-24T01:02:58.361Z,51.93
2022-11-24T01:06:06.577Z,61.13
2022-11-24T01:09:11.987Z,62.90
2022-11-24T01:12:15.993Z,55.90
2022-11-24T01:15:19.047Z,57.63
2022-11-24T01:18:23.045Z,57.33
2022-11-24T01:21:27.462Z,58.28
2022-11-24T01:24:32.022Z,58.95
2022-11-24T01:27:36.213Z,56.83
2022-11-24T01:30:40.249Z,53.23
2022-11-24T01:33:43.494Z,50.90
2022-11-24T01:36:47.508Z,54.60
2022-11-24T01:39:51.700Z,49.85
2022-11-24T01:42:55.710Z,55.08
2022-11-24T01:46:03.849Z,47.90
2022-11-24T01:49:15.922Z,54.13
2022-11-24T01:52:24.981Z,53.53
2022-11-24T01:55:33.913Z,51.00
2022-11-24T01:58:39.846Z,48.25
2022-11-24T02:05:09.322Z,53.73
2022-11-24T02:08:20.284Z,47.83
2022-11-24T02:11:26.587Z,49.25
2022-11-24T02:14:30.947Z,51.90
2022-11-24T02:17:35.056Z,52.33
2022-11-24T02:20:38.114Z,49.27
2022-11-24T02:23:51.911Z,47.45
2022-11-24T02:26:56.036Z,47.20
2022-11-24T02:30:00.709Z,49.80
2022-11-24T02:33:05.011Z,47.63
2022-11-24T02:36:08.494Z,49.13
2022-11-24T02:39:13.687Z,47.17
2022-11-24T02:42:18.051Z,51.97
2022-11-24T02:45:24.157Z,47.40
2022-11-24T02:48:28.284Z,49.03
2022-11-24T02:51:31.034Z,49.33
2022-11-24T02:54:35.291Z,48.50
2022-11-24T02:57:39.679Z,48.42
2022-11-24T03:00:43.867Z,45.03
2022-11-24T03:03:48.251Z,53.07
2022-11-24T03:06:51.095Z,51.60
2022-11-24T03:09:55.154Z,47.55
2022-11-24T03:12:59.616Z,50.08
2022-11-24T03:16:03.676Z,43.50
2022-11-24T03:19:06.506Z,41.63
2022-11-24T03:22:12.335Z,49.90
2022-11-24T03:25:15.134Z,44.25
2022-11-24T03:28:20.552Z,44.15
2022-11-24T03:31:25.454Z,45.40
2022-11-24T03:34:28.295Z,47.60
2022-11-24T03:37:32.776Z,44.40
2022-11-24T03:40:35.545Z,43.55
2022-11-24T03:43:43.983Z,43.78
2022-11-24T03:46:48.589Z,41.47
2022-11-24T03:49:51.438Z,48.77
2022-11-24T03:52:55.592Z,48.90
2022-11-24T03:55:58.625Z,43.30
2022-11-24T03:59:04.349Z,45.70
2022-11-24T04:02:09.059Z,40.75
2022-11-24T04:05:11.841Z,46.63
2022-11-24T04:08:16.789Z,44.23
2022-11-24T04:11:33.435Z,41.60
2022-11-24T04:14:38.814Z,43.78
2022-11-24T04:17:42.934Z,45.97
2022-11-24T04:20:45.922Z,47.00
2022-11-24T04:23:49.957Z,45.50
2022-11-24T04:26:52.752Z,42.45
2022-11-24T04:29:58.186Z,41.55
2022-11-24T04:33:01.035Z,43.03
2022-11-24T04:36:05.330Z,46.20
2022-11-24T04:39:25.671Z,43.43
2022-11-24T04:42:30.651Z,42.95
2022-11-24T04:45:34.817Z,44.40
2022-11-24T04:48:37.632Z,45.65
2022-11-24T04:51:40.545Z,46.50
2022-11-24T04:54:43.646Z,44.55
2022-11-24T04:57:46.497Z,44.90
2022-11-24T05:00:50.670Z,47.42
2022-11-24T05:03:54.694Z,42.65
2022-11-24T05:06:57.499Z,47.90
2022-11-24T05:10:29.091Z,44.92
2022-11-24T05:13:33.207Z,47.60
2022-11-24T05:16:37.743Z,39.67
2022-11-24T05:19:41.676Z,51.25
2022-11-24T05:22:44.334Z,44.47
2022-11-24T05:25:47.922Z,40.92
2022-11-24T05:28:52.041Z,42.63
2022-11-24T05:31:56.792Z,40.42
2022-11-24T05:35:01.359Z,40.33
2022-11-24T05:38:05.103Z,43.07
2022-11-24T05:41:08.986Z,41.08
2022-11-24T05:44:11.771Z,46.05
2022-11-24T05:47:17.034Z,42.63
2022-11-24T05:50:23.020Z,42.83
2022-11-24T05:53:26.946Z,41.97
2022-11-24T05:56:30.874Z,42.38
2022-11-24T05:59:33.835Z,37.78
2022-11-24T06:02:38.104Z,35.95
2022-11-24T06:05:42.162Z,38.40
2022-11-24T06:08:44.853Z,34.80
2022-11-24T06:11:49.367Z,37.83
2022-11-24T06:14:53.237Z,40.60
2022-11-24T06:17:57.445Z,39.65
2022-11-24T06:21:10.967Z,40.50
2022-11-24T06:24:15.874Z,39.60
2022-11-24T06:27:20.470Z,36.15
2022-11-24T06:30:24.632Z,34.85
2022-11-24T06:33:32.141Z,39.03
2022-11-24T06:36:35.051Z,35.72
2022-11-24T06:39:37.789Z,39.73
2022-11-24T06:42:40.590Z,39.47
2022-11-24T06:45:44.484Z,37.30
2022-11-24T06:48:48.569Z,35.85
2022-11-24T06:51:52.438Z,36.88
2022-11-24T06:54:55.350Z,32.17
2022-11-24T06:57:58.059Z,34.65
2022-11-24T07:01:02.107Z,34.90
2022-11-24T07:04:06.458Z,36.63
2022-11-24T07:07:10.395Z,39.53
2022-11-24T07:10:13.149Z,36.97
2022-11-24T07:13:16.224Z,39.47
2022-11-24T07:16:22.258Z,39.58
2022-11-24T07:19:26.409Z,38.63
2022-11-24T07:22:29.354Z,34.47
2022-11-24T07:25:32.110Z,39.67
2022-11-24T07:28:37.697Z,35.22
2022-11-24T07:31:40.610Z,36.40
2022-11-24T07:34:44.748Z,34.88
2022-11-24T07:37:48.742Z,36.00
2022-11-24T07:40:52.583Z,38.03
2022-11-24T07:43:55.273Z,37.55
2022-11-24T07:46:59.389Z,36.15
2022-11-24T07:50:03.563Z,37.13
2022-11-24T07:53:07.473Z,34.65
2022-11-24T07:56:10.745Z,39.23
2022-11-24T07:59:14.672Z,35.78
2022-11-24T08:02:18.711Z,35.30
2022-11-24T08:05:24.039Z,35.25
2022-11-24T08:08:27.426Z,34.00
2022-11-24T08:11:32.577Z,33.07
2022-11-24T08:14:35.448Z,31.13
2022-11-24T08:17:39.581Z,32.60
2022-11-24T08:20:43.655Z,36.53
2022-11-24T08:23:47.807Z,34.83
2022-11-24T08:26:50.520Z,34.63
2022-11-24T08:29:54.500Z,31.98
2022-11-24T08:33:00.024Z,38.45
2022-11-24T08:36:09.048Z,37.40
2022-11-24T08:39:14.182Z,35.67
2022-11-24T08:42:16.971Z,36.80
2022-11-24T08:45:23.121Z,33.80
2022-11-24T08:48:27.587Z,34.15
2022-11-24T08:51:31.695Z,33.80
2022-11-24T08:54:36.035Z,35.40
2022-11-24T08:57:38.951Z,34.97
2022-11-24T09:00:41.770Z,30.77
2022-11-24T09:03:50.368Z,32.25
2022-11-24T09:06:55.203Z,29.80
2022-11-24T09:09:59.282Z,32.85
2022-11-24T09:13:06.376Z,34.63
2022-11-24T09:16:11.373Z,32.05
2022-11-24T09:19:15.540Z,29.90
2022-11-24T09:22:24.887Z,33.50
2022-11-24T09:25:27.908Z,31.75
2022-11-24T09:28:30.677Z,32.20
2022-11-24T09:31:37.371Z,32.53
2022-11-24T09:34:40.108Z,29.65
2022-11-24T09:37:46.904Z,33.92
2022-11-24T09:40:51.474Z,32.65
2022-11-24T09:44:07.441Z,32.77
2022-11-24T09:47:17.765Z,33.33
2022-11-24T09:50:23.007Z,33.92
2022-11-24T09:53:35.569Z,33.47
2022-11-24T09:56:41.505Z,33.63
2022-11-24T09:59:44.320Z,28.30
2022-11-24T10:06:23.303Z,33.00
2022-11-24T10:09:42.451Z,34.97
2022-11-24T10:12:57.870Z,32.65
2022-11-24T10:16:09.664Z,30.70
2022-11-24T10:19:21.911Z,32.38
2022-11-24T10:22:40.449Z,35.90
2022-11-24T10:25:52.450Z,33.63
2022-11-24T10:28:56.816Z,32.30
2022-11-24T10:32:00.793Z,30.80
2022-11-24T10:35:17.269Z,33.42
2022-11-24T10:38:32.744Z,34.95
2022-11-24T10:45:12.977Z,31.27
2022-11-24T10:51:50.290Z,31.48
2022-11-24T10:54:59.502Z,30.20
2022-11-24T10:58:16.204Z,33.85
2022-11-24T11:01:29.991Z,27.90
2022-11-24T11:04:34.257Z,29.20
2022-11-24T11:07:38.323Z,31.08
2022-11-24T11:10:41.971Z,29.33
2022-11-24T11:13:56.842Z,28.60
2022-11-24T11:17:03.054Z,30.00
2022-11-24T11:20:18.572Z,31.97
2022-11-24T11:23:26.440Z,32.33
2022-11-24T11:26:34.957Z,35.70
2022-11-24T11:36:26.599Z,32.03
2022-11-24T11:39:34.161Z,31.40
2022-11-24T11:43:01.952Z,32.45
2022-11-24T11:46:14.943Z,31.35
2022-11-24T11:49:19.066Z,32.63
2022-11-24T11:52:43.753Z,30.40
2022-11-24T11:55:57.382Z,30.42
2022-11-24T11:59:31.241Z,31.20
2022-11-24T12:03:01.694Z,31.10
2022-11-24T12:06:15.899Z,29.77
2022-11-24T12:09:26.062Z,34.07
2022-11-24T12:13:11.763Z,29.88
2022-11-24T12:16:31.502Z,30.05
2022-11-24T12:20:02.669Z,28.77
2022-11-24T12:23:16.842Z,32.13
2022-11-24T12:26:27.464Z,29.53
2022-11-24T12:29:58.422Z,30.88
2022-11-24T12:33:26.314Z,30.95
2022-11-24T12:36:50.996Z,30.38
2022-11-24T12:40:03.391Z,30.85
2022-11-24T12:43:14.630Z,32.03
2022-11-24T12:50:00.301Z,31.02
2022-11-24T12:53:08.695Z,30.65
2022-11-24T12:59:45.425Z,31.23
2022-11-24T13:03:06.623Z,31.92
2022-11-24T13:09:40.440Z,35.30
2022-11-24T13:12:54.963Z,34.22
2022-11-24T13:19:39.664Z,33.78
2022-11-24T13:22:48.248Z,28.80
2022-11-24T13:26:15.894Z,32.88
2022-11-24T13:29:35.237Z,34.65
2022-11-24T13:32:48.261Z,32.47
2022-11-24T13:36:30.135Z,30.25
2022-11-24T13:39:51.346Z,37.58
2022-11-24T13:43:23.505Z,29.52
2022-11-24T13:47:05.115Z,33.55
2022-11-24T13:50:39.994Z,31.57
2022-11-24T13:53:48.059Z,31.85
2022-11-24T14:00:24.243Z,36.85
2022-11-24T14:03:32.406Z,43.42
2022-11-24T14:06:40.610Z,43.47
2022-11-24T14:09:47.080Z,51.00
2022-11-24T14:13:26.421Z,41.60
2022-11-24T14:16:30.635Z,39.03
2022-11-24T14:19:34.967Z,37.50
2022-11-24T14:22:42.053Z,47.17
2022-11-24T14:25:51.393Z,36.30
2022-11-24T14:28:55.455Z,30.42
2022-11-24T14:32:03.522Z,29.08
2022-11-24T14:35:23.754Z,30.00
2022-11-24T14:38:26.546Z,28.23
2022-11-24T14:41:30.026Z,27.08
2022-11-24T14:44:39.198Z,31.92
2022-11-24T14:47:46.678Z,30.52
2022-11-24T14:50:49.572Z,30.83
2022-11-24T14:53:55.143Z,28.87
2022-11-24T14:57:01.827Z,31.98
2022-11-24T15:00:08.994Z,30.88
2022-11-24T15:03:18.173Z,27.60
2022-11-24T15:06:22.247Z,30.23
2022-11-24T15:09:33.353Z,26.67
2022-11-24T15:12:40.478Z,28.88
2022-11-24T15:15:50.627Z,28.30
2022-11-24T15:19:00.228Z,28.52
2022-11-24T15:22:41.981Z,31.23
2022-11-24T15:25:46.535Z,31.07
2022-11-24T15:28:49.257Z,28.23
2022-11-24T15:31:53.501Z,29.83
2022-11-24T15:34:57.620Z,25.85
2022-11-24T15:41:24.354Z,26.50
2022-11-24T15:44:27.031Z,27.73
2022-11-24T15:47:31.024Z,29.55
2022-11-24T15:50:36.934Z,30.05
2022-11-24T15:53:42.298Z,28.92
2022-11-24T15:56:47.513Z,27.57
2022-11-24T15:59:51.637Z,31.20
2022-11-24T16:02:55.371Z,29.95
2022-11-24T16:05:59.699Z,31.65
2022-11-24T16:09:03.931Z,32.60
2022-11-24T16:12:09.432Z,32.90
2022-11-24T16:15:12.133Z,26.45
2022-11-24T16:18:16.350Z,31.42
2022-11-24T16:21:20.505Z,29.15
2022-11-24T16:24:24.468Z,28.33
2022-11-24T16:27:27.217Z,30.97
2022-11-24T16:30:29.899Z,32.38
2022-11-24T16:33:32.856Z,30.63
2022-11-24T16:36:36.931Z,32.97
2022-11-24T16:39:39.652Z,30.80
2022-11-24T16:42:42.363Z,27.03
2022-11-24T16:45:46.005Z,27.02
2022-11-24T16:48:50.777Z,27.02
2022-11-24T16:51:54.912Z,29.85
2022-11-24T16:54:58.855Z,31.20
2022-11-24T16:58:04.977Z,31.60
2022-11-24T17:01:10.256Z,31.58
2022-11-24T17:04:14.455Z,31.70
2022-11-24T17:07:19.838Z,31.40
2022-11-24T17:10:22.571Z,32.80
2022-11-24T17:13:25.372Z,28.73
2022-11-24T17:16:29.369Z,29.58
2022-11-24T17:19:33.969Z,29.70
2022-11-24T17:22:38.029Z,28.63
2022-11-24T17:25:41.235Z,32.50
2022-11-24T17:28:45.540Z,28.43
2022-11-24T17:31:48.244Z,28.63
2022-11-24T17:34:50.941Z,27.95
2022-11-24T17:37:58.230Z,29.00
2022-11-24T17:41:02.195Z,33.03
2022-11-24T17:44:06.170Z,28.88
2022-11-24T17:50:30.435Z,32.00
2022-11-24T17:53:38.499Z,31.20
2022-11-24T17:56:42.580Z,33.30
2022-11-24T17:59:45.305Z,31.40
2022-11-24T18:02:48.036Z,29.08
2022-11-24T18:09:15.010Z,31.03
2022-11-24T18:15:39.294Z,29.10
2022-11-24T18:18:47.395Z,29.85
2022-11-24T18:21:53.887Z,33.88
2022-11-24T18:24:57.961Z,34.10
2022-11-24T18:28:01.875Z,33.22
2022-11-24T18:31:07.451Z,32.40
2022-11-24T18:34:10.155Z,29.10
2022-11-24T18:40:41.066Z,31.13
2022-11-24T18:43:44.245Z,32.80
2022-11-24T18:50:09.178Z,37.63
2022-11-24T18:53:11.897Z,31.70
2022-11-24T18:56:18.708Z,29.93
2022-11-24T18:59:21.410Z,35.55
2022-11-24T19:02:24.913Z,33.88
2022-11-24T19:05:27.691Z,32.00
2022-11-24T19:08:31.700Z,30.92
2022-11-24T19:11:38.027Z,31.23
2022-11-24T19:14:40.718Z,30.00
2022-11-24T19:17:47.304Z,28.67
2022-11-24T19:20:50.225Z,31.70
2022-11-24T19:23:53.171Z,30.85
2022-11-24T19:26:57.729Z,30.17
2022-11-24T19:30:00.448Z,33.28
2022-11-24T19:33:03.196Z,29.38
2022-11-24T19:36:08.676Z,33.38
2022-11-24T19:39:18.321Z,28.63
2022-11-24T19:42:22.420Z,27.93
2022-11-24T19:45:25.248Z,29.08
2022-11-24T19:48:32.656Z,30.27
2022-11-24T19:51:37.144Z,31.05
2022-11-24T19:54:40.488Z,32.05
2022-11-24T19:57:44.600Z,30.33
2022-11-24T20:00:48.668Z,27.85
2022-11-24T20:03:56.178Z,31.58
2022-11-24T20:07:00.150Z,31.63
2022-11-24T20:10:07.572Z,31.92
2022-11-24T20:16:34.675Z,30.60
2022-11-24T20:19:38.710Z,31.48
2022-11-24T20:22:42.393Z,35.42
2022-11-24T20:25:46.323Z,31.60
2022-11-24T20:28:50.937Z,33.30
2022-11-24T20:31:57.308Z,34.55
2022-11-24T20:35:02.875Z,34.25
2022-11-24T20:38:05.556Z,30.15
2022-11-24T20:41:11.653Z,30.08
2022-11-24T20:44:18.342Z,31.77
2022-11-24T20:47:22.322Z,33.75
2022-11-24T20:50:26.282Z,33.53
2022-11-24T20:53:30.251Z,29.65
2022-11-24T20:56:36.488Z,34.28
2022-11-24T20:59:41.884Z,31.97
2022-11-24T21:02:44.694Z,30.85
2022-11-24T21:05:48.897Z,31.38
2022-11-24T21:08:52.381Z,31.58
2022-11-24T21:11:56.667Z,31.42
2022-11-24T21:18:23.088Z,29.55
2022-11-24T21:21:29.461Z,30.90
2022-11-24T21:24:32.236Z,29.95
2022-11-24T21:27:36.292Z,31.48
2022-11-24T21:30:41.627Z,29.77
2022-11-24T21:33:45.863Z,31.55
2022-11-24T21:36:50.233Z,31.95
2022-11-24T21:39:54.226Z,32.17
2022-11-24T21:42:58.971Z,31.02
2022-11-24T21:46:05.430Z,35.40
2022-11-24T21:49:08.288Z,34.97
2022-11-24T21:52:12.268Z,32.50
2022-11-24T21:55:16.471Z,29.50
2022-11-24T21:58:19.166Z,32.00
2022-11-24T22:01:26.432Z,30.63
2022-11-24T22:04:29.215Z,33.10
2022-11-24T22:07:33.809Z,32.33
2022-11-24T22:10:36.531Z,33.60
2022-11-24T22:13:40.797Z,28.25
2022-11-24T22:16:45.003Z,31.70
2022-11-24T22:23:09.547Z,30.42
2022-11-24T22:26:18.504Z,31.73
2022-11-24T22:29:22.556Z,29.90
2022-11-24T22:32:26.704Z,30.80
2022-11-24T22:35:29.466Z,31.60
2022-11-24T22:38:35.135Z,32.33
2022-11-24T22:41:37.821Z,30.55
2022-11-24T22:44:41.752Z,30.77
2022-11-24T22:47:45.795Z,29.70
2022-11-24T22:50:49.830Z,31.25
2022-11-24T22:53:55.360Z,31.02
2022-11-24T22:56:58.058Z,30.60
2022-11-24T23:00:02.001Z,31.03
2022-11-24T23:03:06.236Z,30.27
2022-11-24T23:06:13.710Z,30.85
2022-11-24T23:09:16.537Z,28.15
2022-11-24T23:12:20.686Z,31.17
2022-11-24T23:15:24.697Z,29.43
2022-11-24T23:18:28.761Z,31.45
2022-11-24T23:21:35.324Z,29.80
2022-11-24T23:24:38.223Z,33.03
2022-11-24T23:27:42.253Z,36.03
2022-11-24T23:30:45.444Z,33.77
2022-11-24T23:33:50.835Z,29.30
2022-11-24T23:36:54.788Z,36.67
2022-11-24T23:39:57.498Z,31.88
2022-11-24T23:43:01.482Z,29.08
2022-11-24T23:46:05.033Z,33.43
2022-11-24T23:49:11.712Z,30.45
2022-11-24T23:52:15.681Z,30.13
2022-11-24T23:55:19.030Z,30.40
2022-11-24T23:58:23.033Z,27.55
